Time;durP1;ratioP1;P1;durP2;ratioP2;P2;SDS_P1;SDS_P2;PMS_P1;PMS_P2;Temp;Humidity;BMP_temperature;BMP_pressure;BME280_temperature;BME280_humidity;BME280_pressure;Samples;Min_cycle;Max_cycle;Signal;HPM_P1;HPM_P2
2022/10/05 02:07:13;;;;;;;13.93;10.27;;;;;;;17.89;49.38;100347.25;4194579;28;20639;-32
2022/10/05 02:09:23;;;;;;;12.67;10.97;;;;;;;16.07;53.25;100371.88;4196305;28;20691;-32
2022/10/05 02:11:25;;;;;;;12.23;10.93;;;;;;;17.34;51.77;100273.50;4184556;28;20274;-31
2022/10/05 02:13:32;;;;;;;12.37;10.00;;;;;;;18.22;49.16;100292.91;4187454;28;20314;-34
2022/10/05 02:15:44;;;;;;;12.40;11.03;;;;;;;18.40;48.93;100308.56;4191921;28;20242;-31
2022/10/05 02:17:54;;;;;;;12.37;10.57;;;;;;;19.03;47.32;100281.56;4187991;28;20699;-34
2022/10/05 02:20:01;;;;;;;14.43;11.97;;;;;;;19.49;46.78;100278.16;4194654;28;20223;-32
2022/10/05 02:22:27;;;;;;;16.03;12.07;;;;;;;19.19;47.02;100311.91;4200301;28;20258;-33
2022/10/05 02:24:37;;;;;;;13.50;11.13;;;;;;;19.35;46.58;100310.69;4187013;28;20267;-32
2022/10/05 02:26:39;;;;;;;12.67;10.90;;;;;;;19.35;46.58;100319.59;4189677;28;20259;-32
2022/10/05 02:28:41;;;;;;;14.67;11.33;;;;;;;19.04;47.01;100345.22;4201643;28;20290;-33
2022/10/05 02:30:50;;;;;;;12.50;10.53;;;;;;;18.54;47.84;100384.88;4184796;28;20322;-32
2022/10/05 02:33:22;;;;;;;12.90;10.60;;;;;;;18.74;47.16;100353.50;4193865;28;20899;-32
2022/10/05 02:35:47;;;;;;;13.07;10.10;;;;;;;18.68;47.41;100359.72;4185551;28;20594;-31
2022/10/05 02:38:25;;;;;;;13.03;10.50;;;;;;;17.97;48.79;100384.81;4203137;28;20228;-33
2022/10/05 02:41:27;;;;;;;11.93;10.60;;;;;;;18.29;48.11;100347.63;4194236;28;20229;-32
2022/10/05 02:44:07;;;;;;;14.83;11.23;;;;;;;17.63;49.87;100356.75;4190574;28;20238;-33
2022/10/05 02:46:40;;;;;;;12.40;10.50;;;;;;;17.93;49.10;100326.19;4193372;28;20327;-31
2022/10/05 02:49:13;;;;;;;14.80;10.03;;;;;;;17.34;50.31;100343.38;4188886;28;20253;-32
2022/10/05 02:52:03;;;;;;;14.37;11.33;;;;;;;16.06;52.74;100358.63;4189175;28;20277;-32
2022/10/05 02:54:38;;;;;;;14.03;10.70;;;;;;;16.57;51.72;100307.00;4190771;28;20333;-31
2022/10/05 02:57:21;;;;;;;12.07;10.87;;;;;;;16.70;51.81;100275.84;4183031;28;20245;-31
2022/10/05 02:59:58;;;;;;;14.93;11.83;;;;;;;17.38;50.03;100281.00;4184342;28;20280;-30
2022/10/05 03:02:37;;;;;;;12.73;11.43;;;;;;;17.74;49.46;100247.00;4185411;28;20233;-31
2022/10/05 03:05:05;;;;;;;17.67;12.07;;;;;;;18.13;49.03;100251.84;4185319;28;20494;-33
2022/10/05 03:07:37;;;;;;;18.43;13.70;;;;;;;18.12;49.41;100249.34;4187993;28;20233;-33
2022/10/05 03:10:28;;;;;;;18.23;13.13;;;;;;;18.25;49.39;100254.00;4189549;28;20254;-34
2022/10/05 03:13:06;;;;;;;14.70;12.53;;;;;;;18.02;49.32;100261.28;4186604;28;20299;-32
2022/10/05 03:15:48;;;;;;;18.63;13.47;;;;;;;16.19;52.90;100354.31;4190361;28;20231;-31
2022/10/05 03:18:26;;;;;;;14.00;12.47;;;;;;;16.71;52.42;100301.66;4191621;28;20257;-31
2022/10/05 03:20:55;;;;;;;16.23;13.17;;;;;;;18.92;48.37;100217.47;4189354;28;20218;-32
2022/10/05 03:23:52;;;;;;;17.23;12.53;;;;;;;18.80;48.47;100251.41;4182968;28;20235;-35
2022/10/05 03:26:29;;;;;;;17.00;12.93;;;;;;;17.43;50.45;100312.66;4189523;28;20222;-32
2022/10/05 03:29:07;;;;;;;16.27;12.53;;;;;;;18.26;49.08;100264.56;4192572;28;22506;-34
2022/10/05 03:32:00;;;;;;;14.93;11.73;;;;;;;17.10;50.84;100308.53;4185280;28;20310;-32
2022/10/05 03:34:36;;;;;;;16.47;11.67;;;;;;;17.45;49.87;100297.19;4189761;28;20808;-31
2022/10/05 03:37:24;;;;;;;13.93;11.20;;;;;;;17.64;50.00;100263.44;4172675;28;20307;-33
2022/10/05 03:40:06;;;;;;;17.10;11.53;;;;;;;15.76;53.21;100342.41;4190397;28;20284;-34
2022/10/05 03:42:50;;;;;;;32.07;12.50;;;;;;;17.17;51.17;100257.56;4183985;28;20293;-32
2022/10/05 03:45:40;;;;;;;22.77;11.33;;;;;;;17.74;49.98;100236.22;4190406;28;20310;-32
2022/10/05 03:48:11;;;;;;;20.77;12.07;;;;;;;17.03;51.42;100235.09;4191623;28;20240;-33
2022/10/05 03:51:12;;;;;;;21.40;12.00;;;;;;;15.90;53.23;100308.66;4192415;28;20389;-32
2022/10/05 03:53:48;;;;;;;29.77;12.10;;;;;;;17.20;51.11;100213.38;4187940;28;20265;-35
2022/10/05 03:56:32;;;;;;;39.60;11.33;;;;;;;17.03;52.37;100196.66;4196922;28;20280;-32
2022/10/05 03:59:28;;;;;;;75.63;11.63;;;;;;;14.69;55.87;100334.88;4190674;28;20292;-32
2022/10/05 04:02:00;;;;;;;63.80;12.17;;;;;;;16.21;54.50;100203.88;4191302;28;20287;-31
2022/10/05 04:04:37;;;;;;;90.20;11.93;;;;;;;15.38;55.70;100272.66;4191032;28;20292;-31
2022/10/05 04:07:05;;;;;;;88.63;12.07;;;;;;;15.48;55.00;100283.13;4193073;28;20222;-33
2022/10/05 04:09:45;;;;;;;91.73;12.87;;;;;;;15.67;55.25;100239.78;4189170;28;20280;-33
2022/10/05 04:12:32;;;;;;;113.23;14.33;;;;;;;17.66;51.27;100194.97;4195114;28;20245;-32
2022/10/05 04:15:17;;;;;;;62.70;11.73;;;;;;;15.96;52.99;100316.81;4189641;28;20222;-32
2022/10/05 04:17:48;;;;;;;65.03;11.87;;;;;;;17.05;51.65;100267.97;4202136;28;20281;-31
2022/10/05 04:20:24;;;;;;;74.37;12.23;;;;;;;16.78;52.22;100264.13;4195828;28;20311;-32
2022/10/05 04:23:04;;;;;;;59.97;12.27;;;;;;;17.88;50.26;100231.78;4189967;28;20334;-32
2022/10/05 04:25:45;;;;;;;54.37;11.20;;;;;;;18.34;48.76;100256.34;4187250;28;20238;-34
2022/10/05 04:28:42;;;;;;;54.53;11.03;;;;;;;17.07;50.29;100357.28;4196348;28;20296;-32
2022/10/05 04:31:14;;;;;;;36.47;9.90;;;;;;;17.51;50.26;100301.78;4184199;28;20242;-33
2022/10/05 04:33:46;;;;;;;36.53;10.30;;;;;;;17.74;49.95;100276.56;4195438;28;20315;-31
2022/10/05 04:36:25;;;;;;;43.63;9.97;;;;;;;17.64;50.06;100295.72;4194848;28;20597;-34
2022/10/05 04:39:18;;;;;;;42.07;10.50;;;;;;;17.24;50.60;100339.09;4183904;28;20584;-32
2022/10/05 04:41:44;;;;;;;43.17;10.27;;;;;;;17.52;49.68;100330.34;4190951;28;20235;-33
2022/10/05 04:44:42;;;;;;;29.17;9.97;;;;;;;18.36;48.11;100277.69;4195022;28;20372;-35
2022/10/05 04:47:40;;;;;;;32.07;10.00;;;;;;;18.80;46.96;100279.16;4153224;28;20238;-32
2022/10/05 04:50:12;;;;;;;22.00;11.07;;;;;;;17.93;48.35;100351.22;4191861;28;20230;-32
2022/10/05 04:52:59;;;;;;;18.10;11.27;;;;;;;18.24;48.39;100315.09;4186660;28;20293;-30
2022/10/05 04:55:45;;;;;;;18.83;10.00;;;;;;;17.51;50.04;100344.78;4194165;28;20230;-32
2022/10/05 04:58:38;;;;;;;14.63;9.50;;;;;;;17.27;51.77;100278.75;4189667;28;20248;-31
2022/10/05 05:01:31;;;;;;;11.50;9.77;;;;;;;17.14;51.21;100333.19;4182303;28;20221;-31
2022/10/05 05:04:24;;;;;;;16.83;10.47;;;;;;;16.96;50.65;100376.56;4192551;28;20639;-33
2022/10/05 05:07:24;;;;;;;12.97;10.63;;;;;;;17.60;50.22;100315.97;4195005;28;20229;-33
2022/10/05 05:09:59;;;;;;;12.93;11.37;;;;;;;17.92;50.29;100276.06;4192939;28;20306;-30
2022/10/05 05:12:43;;;;;;;12.80;11.37;;;;;;;18.58;48.47;100275.75;4189822;28;20254;-31
2022/10/05 05:15:27;;;;;;;15.40;11.80;;;;;;;18.69;48.10;100280.53;4194306;28;20245;-30
2022/10/05 05:18:15;;;;;;;13.00;11.17;;;;;;;17.97;49.54;100344.44;4184652;28;20222;-30
2022/10/05 05:21:08;;;;;;;14.90;12.07;;;;;;;18.83;48.15;100280.66;4190458;28;20810;-32
2022/10/05 05:23:43;;;;;;;12.23;10.70;;;;;;;18.94;47.79;100290.84;4188934;28;20369;-33
2022/10/05 05:26:27;;;;;;;14.13;11.57;;;;;;;18.32;48.86;100341.84;4194033;28;20226;-33
2022/10/05 05:29:30;;;;;;;12.63;10.77;;;;;;;18.94;47.54;100301.63;4188749;28;20252;-32
2022/10/05 05:32:14;;;;;;;15.23;11.50;;;;;;;18.66;48.47;100323.22;4193763;28;20267;-31
2022/10/05 05:34:57;;;;;;;12.33;10.87;;;;;;;18.67;47.99;100331.09;4186886;28;20237;-33
2022/10/05 05:37:32;;;;;;;12.93;11.57;;;;;;;18.99;47.82;100312.63;4190326;28;20230;-33
2022/10/05 05:40:16;;;;;;;15.30;11.40;;;;;;;18.17;48.86;100392.25;4203261;28;20291;-32
2022/10/05 05:42:51;;;;;;;15.53;11.20;;;;;;;17.93;49.93;100390.75;4189365;28;20285;-34
2022/10/05 05:45:25;;;;;;;14.77;11.47;;;;;;;18.53;48.76;100353.59;4189241;28;20230;-33
2022/10/05 05:47:53;;;;;;;14.20;11.73;;;;;;;18.34;48.55;100360.50;4187343;28;20248;-32
2022/10/05 05:51:08;;;;;;;12.07;10.70;;;;;;;17.41;49.79;100420.41;4193941;28;20265;-34
2022/10/05 08:50:00;;;;;;;11.40;10.00;;;;;;;19.49;52.91;100325.88;4142161;28;20293;-28
2022/10/05 08:52:10;;;;;;;15.07;10.20;;;;;;;20.01;52.75;100304.56;4151388;28;20740;-28
2022/10/05 08:54:37;;;;;;;11.40;10.20;;;;;;;20.55;51.82;100283.75;4146031;28;20680;-28
2022/10/05 08:56:55;;;;;;;12.80;10.17;;;;;;;20.58;51.89;100294.13;4139327;28;20280;-28
2022/10/05 08:59:20;;;;;;;11.90;9.17;;;;;;;19.95;53.37;100302.72;4148193;28;20682;-28
2022/10/05 09:01:31;;;;;;;10.93;9.17;;;;;;;20.42;52.39;100280.03;4143866;28;20229;-30
2022/10/05 09:03:52;;;;;;;11.57;9.87;;;;;;;20.48;52.59;100267.56;4148469;28;20241;-31
2022/10/05 09:06:23;;;;;;;11.47;9.43;;;;;;;20.30;52.72;100292.53;4147224;28;20321;-31
2022/10/05 09:08:52;;;;;;;9.97;8.97;;;;;;;20.67;51.45;100275.81;4077099;29;20236;-30
2022/10/05 09:11:31;;;;;;;10.77;8.10;;;;;;;19.50;54.63;100343.69;4121788;28;20299;-31
2022/10/05 09:14:31;;;;;;;10.53;7.67;;;;;;;19.94;53.54;100295.66;4144080;28;20228;-31
2022/10/05 09:17:00;;;;;;;8.37;7.47;;;;;;;20.48;52.71;100251.34;4140131;28;20220;-31
2022/10/05 09:19:38;;;;;;;10.87;7.60;;;;;;;20.17;53.07;100285.25;4144230;28;20232;-31
2022/10/05 09:22:13;;;;;;;8.93;7.23;;;;;;;21.03;51.03;100239.31;4139757;28;20294;-31
2022/10/05 09:24:41;;;;;;;9.23;7.63;;;;;;;20.39;53.10;100272.34;4148010;28;20244;-31
2022/10/05 09:27:15;;;;;;;7.73;6.60;;;;;;;20.67;52.25;100265.84;4145133;28;20267;-31
2022/10/05 09:30:20;;;;;;;12.00;7.43;;;;;;;20.78;51.59;100256.25;4140554;28;20255;-28
2022/10/05 09:32:50;;;;;;;10.73;7.07;;;;;;;21.42;51.21;100234.69;4134184;28;20635;-28
2022/10/05 09:35:37;;;;;;;8.43;7.43;;;;;;;21.61;50.73;100227.47;4144631;28;20298;-28
2022/10/05 09:38:16;;;;;;;8.60;6.80;;;;;;;20.52;51.95;100295.81;4146143;28;20268;-28
2022/10/05 09:41:03;;;;;;;9.03;6.87;;;;;;;20.73;52.07;100283.06;4141768;28;20267;-28
2022/10/05 09:43:41;;;;;;;9.37;6.27;;;;;;;21.53;51.04;100229.41;4143998;28;20350;-31
2022/10/05 09:46:33;;;;;;;7.97;6.27;;;;;;;21.93;50.39;100212.00;4147729;28;20227;-28
2022/10/05 09:49:27;;;;;;;8.57;6.37;;;;;;;21.99;50.41;100213.03;4114674;28;20224;-28
2022/10/05 09:52:12;;;;;;;7.93;6.20;;;;;;;22.19;49.82;100197.38;4145340;28;20258;-28
2022/10/05 09:55:07;;;;;;;8.37;6.47;;;;;;;20.91;51.88;100291.31;4142190;28;20278;-28
2022/10/05 09:57:44;;;;;;;7.53;5.50;;;;;;;21.64;50.93;100208.13;4147345;28;20725;-28
2022/10/05 10:00:39;;;;;;;9.40;5.53;;;;;;;22.43;49.66;100189.44;4147424;28;20232;-28
2022/10/05 10:03:17;;;;;;;8.73;6.10;;;;;;;22.28;48.70;100201.47;4124923;28;20648;-28
2022/10/05 10:06:05;;;;;;;6.93;6.10;;;;;;;22.23;50.03;100209.41;4142866;28;20283;-29
2022/10/05 10:08:56;;;;;;;7.43;5.90;;;;;;;21.82;49.89;100232.53;4143317;28;20228;-28
2022/10/05 10:11:49;;;;;;;6.67;5.93;;;;;;;22.35;49.72;100192.44;4148876;28;20596;-28
2022/10/05 10:14:27;;;;;;;6.60;5.83;;;;;;;21.86;50.06;100220.19;4151981;28;20255;-29
2022/10/05 10:17:07;;;;;;;6.87;5.50;;;;;;;22.42;49.18;100182.34;4145035;28;20220;-31
2022/10/05 10:20:00;;;;;;;5.30;4.77;;;;;;;22.78;49.05;100170.63;4142779;28;20279;-28
2022/10/05 10:22:48;;;;;;;6.90;4.90;;;;;;;22.25;49.36;100203.78;4146389;28;20227;-28
2022/10/05 10:25:36;;;;;;;9.07;5.27;;;;;;;22.48;49.53;100196.88;4142206;28;20236;-28
2022/10/05 10:28:26;;;;;;;5.77;5.17;;;;;;;22.95;48.80;100159.16;4144488;28;20243;-28
2022/10/05 10:31:01;;;;;;;6.73;5.10;;;;;;;22.93;48.29;100155.84;4130146;28;20671;-28
2022/10/05 10:33:51;;;;;;;4.70;4.17;;;;;;;22.19;49.97;100221.75;4144060;28;20232;-28
2022/10/05 10:36:16;;;;;;;6.23;4.40;;;;;;;22.86;49.10;100172.19;4144272;28;20470;-28
2022/10/05 10:39:05;;;;;;;4.77;4.27;;;;;;;23.05;48.35;100153.16;4148453;28;20231;-28
2022/10/05 10:41:52;;;;;;;4.60;3.63;;;;;;;23.83;48.00;100124.94;4143815;28;20244;-28
2022/10/05 10:44:29;;;;;;;4.77;3.93;;;;;;;23.08;48.93;100175.25;4146164;28;20240;-28
2022/10/05 10:47:17;;;;;;;4.73;4.23;;;;;;;24.10;46.91;100117.06;4140041;28;20220;-28
2022/10/05 10:50:05;;;;;;;6.10;3.90;;;;;;;23.39;48.33;100152.41;4150084;28;20320;-28
2022/10/05 10:52:38;;;;;;;6.47;4.10;;;;;;;23.38;48.72;100161.63;4112799;28;20236;-28
2022/10/05 10:55:22;;;;;;;6.10;3.70;;;;;;;22.91;48.86;100187.75;4143303;28;20286;-28
2022/10/05 10:58:06;;;;;;;4.13;3.70;;;;;;;23.39;48.13;100144.25;4144617;28;20796;-28
2022/10/05 13:49:38;;;;;;;4.53;2.90;;;;;;;26.71;44.39;99950.44;4152510;28;20303;-63
2022/10/05 13:51:45;;;;;;;5.40;2.80;;;;;;;26.56;43.74;99969.41;4157440;28;20232;-65
2022/10/05 13:53:48;;;;;;;4.10;2.92;;;;;;;27.50;43.21;99903.34;4170893;28;20244;-64
2022/10/05 13:55:59;;;;;;;3.60;2.80;;;;;;;26.74;44.19;99961.91;4146946;28;20239;-67
2022/10/05 13:58:19;;;;;;;7.75;3.35;;;;;;;27.04;43.52;99944.91;4157513;28;20221;-68
2022/10/05 14:00:23;;;;;;;6.65;2.63;;;;;;;26.38;44.19;99965.13;4156884;28;20221;-67
2022/10/05 14:02:30;;;;;;;4.18;2.97;;;;;;;27.28;42.87;99904.41;4162272;28;20224;-67
2022/10/05 14:04:57;;;;;;;5.03;3.10;;;;;;;26.20;44.32;99990.88;4157524;28;20252;-66
2022/10/05 14:07:18;;;;;;;5.20;3.05;;;;;;;27.52;43.22;99899.28;4158114;28;20225;-66
2022/10/05 14:09:20;;;;;;;6.90;2.88;;;;;;;26.86;42.92;99951.63;4158402;28;20650;-66
2022/10/05 14:11:49;;;;;;;4.45;2.72;;;;;;;27.11;43.25;99939.22;4159474;28;20345;-68
2022/10/05 14:14:24;;;;;;;5.63;2.22;;;;;;;26.58;43.42;99969.97;4158894;28;20422;-63
2022/10/05 14:16:26;;;;;;;3.30;2.10;;;;;;;26.48;43.73;99948.03;4159912;28;20259;-66
2022/10/05 14:18:31;;;;;;;8.23;2.53;;;;;;;27.19;42.63;99919.63;4164025;28;20237;-64
2022/10/05 14:20:34;;;;;;;3.35;2.50;;;;;;;27.14;42.82;99919.59;4159925;28;20233;-63
2022/10/05 14:22:40;;;;;;;3.08;2.38;;;;;;;27.10;43.36;99935.69;4160258;28;20240;-66
2022/10/05 14:25:09;;;;;;;4.85;2.63;;;;;;;27.46;42.75;99911.28;4159356;28;20255;-65
2022/10/05 14:27:17;;;;;;;2.97;2.15;;;;;;;27.07;43.17;99922.56;4152228;28;20336;-65
2022/10/05 14:29:23;;;;;;;6.03;2.42;;;;;;;26.78;43.49;99941.22;4163902;28;20234;-66
2022/10/05 14:31:32;;;;;;;3.92;2.10;;;;;;;26.76;43.05;99946.09;4159790;28;20777;-66
2022/10/05 14:34:29;;;;;;;4.28;2.22;;;;;;;27.72;42.45;99876.69;4158039;28;20620;-65
2022/10/05 14:37:01;;;;;;;4.40;2.53;;;;;;;26.26;44.00;99965.31;4162924;28;20611;-62
2022/10/05 14:39:31;;;;;;;7.05;2.28;;;;;;;26.73;42.80;99939.25;4166299;28;20771;-64
2022/10/05 14:42:12;;;;;;;3.20;2.40;;;;;;;26.30;42.84;99962.88;4160281;28;20751;-63
2022/10/05 14:44:38;;;;;;;3.65;2.22;;;;;;;26.45;42.77;99954.81;4159659;28;20258;-63
2022/10/05 14:47:21;;;;;;;7.13;2.50;;;;;;;27.11;42.64;99901.84;4159613;28;20707;-66
2022/10/05 14:50:09;;;;;;;2.38;2.03;;;;;;;27.40;42.11;99880.41;4152101;28;20242;-64
2022/10/05 14:52:35;;;;;;;3.97;2.00;;;;;;;26.14;42.84;99968.19;4161772;28;20259;-66
2022/10/05 14:55:16;;;;;;;2.65;2.15;;;;;;;27.48;41.94;99870.03;4157496;28;20230;-66
2022/10/05 14:58:01;;;;;;;2.15;2.00;;;;;;;27.21;42.88;99901.06;4157898;28;20880;-64
2022/10/05 15:00:31;;;;;;;4.30;2.30;;;;;;;26.28;43.02;99956.88;4158054;28;20235;-65
2022/10/05 15:03:26;;;;;;;3.50;2.10;;;;;;;26.70;42.38;99928.88;4157217;28;20240;-65
2022/10/05 15:05:59;;;;;;;2.75;2.00;;;;;;;25.66;42.94;99980.72;4159522;28;20283;-65
2022/10/05 15:08:37;;;;;;;5.03;1.90;;;;;;;26.76;42.31;99913.34;4158133;28;20228;-65
2022/10/05 15:11:15;;;;;;;7.18;1.73;;;;;;;25.88;43.52;99963.53;4158131;28;20311;-65
2022/10/05 15:13:44;;;;;;;2.30;1.75;;;;;;;26.78;42.89;99895.66;4164558;28;20255;-64
2022/10/05 15:16:21;;;;;;;3.50;2.08;;;;;;;26.61;43.18;99905.91;4160540;28;20227;-64
2022/10/05 15:19:07;;;;;;;5.68;1.90;;;;;;;26.34;42.47;99934.84;4154352;28;20251;-62
2022/10/05 15:21:53;;;;;;;3.92;1.75;;;;;;;25.70;43.06;99965.53;4159398;28;20242;-63
2022/10/05 15:24:23;;;;;;;4.53;1.73;;;;;;;26.58;42.94;99904.53;4181008;28;20239;-65
2022/10/05 15:26:53;;;;;;;3.55;1.73;;;;;;;26.11;41.93;99937.91;4159761;28;20228;-65
2022/10/05 15:30:00;;;;;;;4.57;2.10;;;;;;;27.29;42.15;99853.34;4163580;28;20344;-66
2022/10/05 15:32:25;;;;;;;2.80;2.22;;;;;;;27.73;40.32;99842.81;4160411;28;20637;-64
2022/10/05 15:34:57;;;;;;;4.68;1.98;;;;;;;26.28;41.67;99956.88;4165509;28;20227;-66
2022/10/05 15:37:31;;;;;;;3.15;1.98;;;;;;;27.14;41.61;99886.84;4156441;28;20310;-65
2022/10/05 15:40:14;;;;;;;3.53;2.15;;;;;;;27.50;41.09;99863.25;4156885;28;20683;-65
2022/10/05 15:42:44;;;;;;;2.67;2.08;;;;;;;27.86;41.06;99846.91;4153103;28;20251;-65
2022/10/05 15:45:12;;;;;;;6.97;1.98;;;;;;;27.31;40.70;99913.94;4161939;28;20266;-65
2022/10/05 15:47:50;;;;;;;3.95;2.03;;;;;;;28.34;40.79;99842.03;4156686;28;20791;-65
2022/10/05 15:50:27;;;;;;;2.30;1.63;;;;;;;27.96;40.40;99866.06;4163270;28;20712;-63
2022/10/05 15:53:08;;;;;;;4.13;2.47;;;;;;;27.52;41.13;99896.56;4162019;28;20225;-67
2022/10/05 15:55:58;;;;;;;4.05;2.10;;;;;;;25.92;42.69;99973.66;4159908;28;20598;-67
2022/10/05 15:58:30;;;;;;;5.18;2.15;;;;;;;26.00;41.96;99956.06;4152499;28;20275;-65
2022/10/05 16:01:10;;;;;;;4.47;1.70;;;;;;;26.11;42.61;99946.09;4159589;28;20228;-67
2022/10/05 16:03:38;;;;;;;1.95;1.60;;;;;;;26.52;41.72;99911.84;4158872;28;20236;-65
2022/10/05 16:09:12;;;;;;;2.10;1.90;;;;;;;26.29;42.90;99918.44;4179342;28;20756;-65
2022/10/05 16:11:57;;;;;;;4.45;1.58;;;;;;;26.27;42.86;99906.19;4175531;28;20226;-61
2022/10/05 16:14:30;;;;;;;3.55;1.60;;;;;;;25.72;43.33;99957.09;4178353;28;20894;-65
2022/10/05 16:17:19;;;;;;;3.55;1.70;;;;;;;26.30;42.71;99917.38;4175467;28;20238;-65
2022/10/05 16:20:15;;;;;;;3.47;1.75;;;;;;;27.41;41.80;99853.91;4177024;28;20219;-65
2022/10/05 16:23:01;;;;;;;5.18;1.80;;;;;;;26.50;42.10;99922.22;4156979;28;20364;-63
2022/10/05 16:25:39;;;;;;;4.07;1.85;;;;;;;26.47;42.96;99919.97;4171818;28;20231;-65
2022/10/05 16:28:19;;;;;;;3.83;1.80;;;;;;;27.31;41.36;99871.06;4155000;28;20394;-65
2022/10/05 16:30:57;;;;;;;2.15;1.70;;;;;;;27.34;41.57;99872.47;4161377;28;20274;-64
2022/10/05 16:34:15;;;;;;;5.72;1.90;;;;;;;26.96;40.98;99924.41;4151277;28;20786;-64
2022/10/05 18:08:40;;;;;;;3.60;1.80;;;;;;;26.15;39.12;100072.59;4173237;28;20231;-66
2022/10/05 18:11:07;;;;;;;3.73;2.27;;;;;;;26.19;39.03;100078.34;4175254;28;20302;-65
2022/10/05 18:13:35;;;;;;;4.95;2.00;;;;;;;25.95;39.15;100105.84;4172839;28;20232;-64
2022/10/05 18:15:44;;;;;;;4.18;2.45;;;;;;;25.77;38.95;100126.00;4177130;28;20323;-65
2022/10/05 18:17:57;;;;;;;4.07;2.30;;;;;;;25.74;39.24;100123.78;4155692;28;20833;-65
2022/10/05 18:20:20;;;;;;;3.00;2.00;;;;;;;26.46;39.18;100081.88;4177564;28;20231;-65
2022/10/05 18:22:22;;;;;;;3.83;2.40;;;;;;;26.19;39.25;100108.31;4175187;28;20322;-65
2022/10/05 18:24:51;;;;;;;4.25;2.28;;;;;;;26.19;38.79;100120.03;4179587;28;20318;-66
2022/10/05 18:27:12;;;;;;;3.20;2.17;;;;;;;26.28;38.75;100120.41;4154146;28;20230;-66
2022/10/05 18:30:01;;;;;;;2.50;2.30;;;;;;;26.38;39.11;100134.16;4175015;28;20228;-67
2022/10/05 18:31:54;;;;;;;2.42;2.10;;;;;;;25.96;38.91;100151.91;4177356;28;20231;-67
2022/10/05 18:34:14;;;;;;;2.85;2.08;;;;;;;25.75;39.81;100156.22;4178282;28;20232;-67
2022/10/05 18:36:29;;;;;;;2.15;1.98;;;;;;;25.43;39.35;100172.34;4176642;28;20232;-67
2022/10/05 18:38:51;;;;;;;3.42;2.15;;;;;;;24.81;40.27;100190.28;4174632;28;20238;-66
2022/10/05 18:41:21;;;;;;;3.13;2.03;;;;;;;26.25;39.10;100101.81;4176732;28;20262;-66
2022/10/05 18:43:45;;;;;;;2.63;2.00;;;;;;;25.53;39.27;100166.25;4181523;28;20240;-66
2022/10/05 18:46:18;;;;;;;2.78;2.10;;;;;;;25.30;40.18;100162.56;4175663;28;20344;-66
2022/10/05 18:48:53;;;;;;;3.50;2.17;;;;;;;25.78;38.93;100144.81;4178913;28;20306;-66
2022/10/05 18:51:16;;;;;;;3.60;2.58;;;;;;;24.90;40.63;100173.56;4177507;28;20307;-66
2022/10/05 18:53:31;;;;;;;2.45;2.25;;;;;;;25.72;39.31;100137.66;4165285;28;20667;-67
2022/10/05 18:56:10;;;;;;;2.58;2.38;;;;;;;24.53;39.47;100206.56;4175343;28;20319;-67
2022/10/05 18:58:29;;;;;;;2.78;1.92;;;;;;;23.94;41.21;100194.72;4171074;28;20303;-67
2022/10/05 19:00:51;;;;;;;3.13;2.20;;;;;;;25.34;39.73;100143.84;4167401;28;20406;-65
2022/10/05 19:02:59;;;;;;;2.97;1.75;;;;;;;25.29;39.98;100150.06;4172761;28;20242;-65
2022/10/05 19:05:07;;;;;;;2.95;2.60;;;;;;;24.39;40.64;100200.56;4172834;28;20243;-63
2022/10/05 19:07:58;;;;;;;3.78;2.30;;;;;;;24.64;40.39;100186.66;4174915;28;20232;-65
2022/10/05 19:10:24;;;;;;;2.63;2.25;;;;;;;24.76;39.97;100178.47;4174008;28;20609;-65
2022/10/05 19:12:40;;;;;;;2.80;2.20;;;;;;;25.15;40.37;100159.59;4148372;28;20229;-66
2022/10/05 19:14:57;;;;;;;2.78;2.58;;;;;;;25.24;39.19;100169.03;4178338;28;20319;-64
2022/10/05 19:17:06;;;;;;;3.60;2.30;;;;;;;25.48;39.13;100158.81;4173086;28;20460;-66
2022/10/05 19:19:37;;;;;;;4.25;2.13;;;;;;;24.71;39.74;100214.53;4174467;28;20308;-66
2022/10/05 19:22:01;;;;;;;3.90;2.43;;;;;;;25.03;39.33;100176.81;4182635;28;20264;-67
2022/10/05 19:24:30;;;;;;;3.33;2.65;;;;;;;25.26;39.30;100176.94;4177267;28;20314;-67
2022/10/05 19:26:53;;;;;;;2.55;2.22;;;;;;;25.94;39.22;100139.59;4170620;28;20263;-66
2022/10/05 19:29:13;;;;;;;4.28;2.33;;;;;;;25.62;38.85;100185.69;4178100;28;20310;-66
2022/10/05 19:31:33;;;;;;;3.67;2.33;;;;;;;25.60;38.45;100191.38;4180992;28;20296;-65
2022/10/05 19:34:21;;;;;;;3.45;2.60;;;;;;;25.41;38.85;100218.03;4178632;28;20761;-67
2022/10/05 19:36:25;;;;;;;3.42;2.88;;;;;;;24.86;39.34;100244.75;4178718;28;20273;-67
2022/10/05 19:38:57;;;;;;;7.03;2.80;;;;;;;25.47;39.34;100211.59;4187443;28;20318;-66
2022/10/05 19:41:14;;;;;;;3.65;2.70;;;;;;;25.15;39.46;100243.94;4175534;28;20231;-65
2022/10/05 19:43:29;;;;;;;4.15;3.00;;;;;;;24.86;39.68;100257.56;4179802;28;20243;-65
2022/10/05 19:45:38;;;;;;;3.85;2.88;;;;;;;25.05;39.99;100255.47;4176502;28;20228;-65
2022/10/05 19:47:42;;;;;;;7.55;3.10;;;;;;;24.25;40.61;100274.19;4176137;28;20230;-68
2022/10/05 19:49:57;;;;;;;3.43;2.83;;;;;;;24.99;39.88;100240.94;4177464;28;20636;-67
2022/10/05 19:51:59;;;;;;;7.43;2.90;;;;;;;24.27;40.75;100253.03;4178214;28;20304;-66
2022/10/05 19:54:27;;;;;;;4.60;2.60;;;;;;;24.33;41.00;100223.25;4177843;28;20264;-66
2022/10/05 19:56:44;;;;;;;6.55;2.75;;;;;;;24.71;40.66;100230.84;4182444;28;20244;-66
2022/10/05 19:58:48;;;;;;;3.67;2.50;;;;;;;24.57;40.82;100241.19;4174826;28;20232;-66
2022/10/05 20:00:59;;;;;;;5.50;2.57;;;;;;;24.82;40.35;100235.47;4177017;28;20324;-66
2022/10/05 20:03:15;;;;;;;4.33;2.80;;;;;;;24.30;40.36;100266.16;4153281;28;20716;-66
2022/10/05 20:05:17;;;;;;;3.77;2.70;;;;;;;24.84;40.42;100232.50;4175097;28;20240;-67
2022/10/05 20:07:22;;;;;;;4.17;2.87;;;;;;;24.58;40.20;100261.03;4170469;28;20238;-64
2022/10/05 20:09:24;;;;;;;4.00;2.87;;;;;;;24.27;40.35;100277.50;4174133;28;20311;-66
2022/10/05 20:11:27;;;;;;;4.00;2.70;;;;;;;24.62;40.53;100244.00;4177056;28;20360;-64
2022/10/05 20:13:32;;;;;;;5.10;2.93;;;;;;;24.88;40.21;100235.56;4181601;28;20228;-65
2022/10/05 20:20:35;;;;;;;6.97;3.07;;;;;;;24.72;40.50;100248.81;4182115;28;20230;-67
2022/10/05 20:22:44;;;;;;;7.23;2.53;;;;;;;24.67;40.80;100259.59;4171823;28;20251;-65
2022/10/05 20:24:51;;;;;;;4.90;2.97;;;;;;;24.73;40.83;100252.34;4177685;28;20620;-67
2022/10/05 20:27:13;;;;;;;5.23;2.90;;;;;;;23.28;41.76;100320.59;4176327;28;20235;-68
2022/10/05 20:29:16;;;;;;;3.60;2.83;;;;;;;23.81;41.86;100283.72;4160144;28;20285;-68
2022/10/05 20:31:18;;;;;;;4.27;3.03;;;;;;;22.80;42.29;100331.16;4160057;28;20758;-66
2022/10/05 20:33:24;;;;;;;3.43;2.60;;;;;;;23.70;41.91;100286.16;4154912;28;20336;-67
2022/10/05 20:35:29;;;;;;;4.90;3.10;;;;;;;23.50;41.93;100302.75;4152998;28;20799;-66
2022/10/05 20:37:31;;;;;;;5.63;2.97;;;;;;;23.87;41.98;100280.06;4160038;28;20865;-65
2022/10/05 20:39:33;;;;;;;3.80;3.20;;;;;;;23.71;42.04;100297.88;4178187;28;20228;-67
2022/10/05 20:41:35;;;;;;;4.00;3.00;;;;;;;23.47;42.20;100310.50;4175258;28;20231;-65
2022/10/05 20:43:38;;;;;;;4.87;2.93;;;;;;;23.36;42.76;100312.13;4179167;28;20247;-65
2022/10/05 20:45:42;;;;;;;5.00;3.00;;;;;;;23.67;42.46;100286.66;4182817;28;20235;-67
2022/10/05 20:47:46;;;;;;;7.30;3.10;;;;;;;23.35;42.46;100311.31;4175979;28;20227;-66
2022/10/05 20:49:47;;;;;;;6.67;3.10;;;;;;;23.80;42.61;100277.44;4176657;28;20303;-67
2022/10/05 20:51:50;;;;;;;4.37;2.60;;;;;;;23.72;42.68;100294.09;4176420;28;20235;-65
2022/10/05 20:53:54;;;;;;;3.47;2.63;;;;;;;24.18;42.17;100281.66;4175368;28;20322;-66
2022/10/05 20:55:58;;;;;;;4.07;3.10;;;;;;;24.05;41.86;100292.72;4176721;28;20239;-65
2022/10/05 20:58:00;;;;;;;4.83;3.00;;;;;;;24.34;42.09;100268.41;4176766;28;20230;-66
2022/10/05 21:00:02;;;;;;;6.67;4.07;;;;;;;24.38;42.07;100280.44;4177349;28;20257;-66
2022/10/05 21:02:04;;;;;;;5.67;3.20;;;;;;;24.41;41.88;100285.41;4179045;28;20227;-66
2022/10/05 21:04:08;;;;;;;6.57;2.87;;;;;;;24.12;42.00;100321.41;4183786;28;20237;-66
2022/10/05 21:06:10;;;;;;;4.40;3.07;;;;;;;24.17;42.27;100311.75;4178891;28;20303;-67